createdAt,value
2023-02-19T00:01:03.752Z,4.05
2023-02-19T00:03:30.858Z,4.55
2023-02-19T00:08:45.051Z,3.47
2023-02-19T00:11:12.265Z,3.75
2023-02-19T00:13:39.394Z,6.35
2023-02-19T00:16:06.487Z,7.38
2023-02-19T00:18:33.567Z,6.55
2023-02-19T00:21:00.652Z,4.95
2023-02-19T00:23:28.111Z,4.32
2023-02-19T00:28:42.218Z,3.45
2023-02-19T00:31:10.564Z,3.78
2023-02-19T00:33:37.836Z,4.72
2023-02-19T00:36:04.898Z,3.40
2023-02-19T00:38:31.962Z,3.63
2023-02-19T00:40:59.069Z,3.15
2023-02-19T00:43:26.129Z,5.57
2023-02-19T00:45:53.204Z,4.07
2023-02-19T00:48:20.326Z,7.43
2023-02-19T00:50:47.392Z,3.38
2023-02-19T00:53:14.474Z,2.90
2023-02-19T00:55:41.601Z,4.63
2023-02-19T00:58:08.701Z,5.25
2023-02-19T01:00:35.845Z,3.33
2023-02-19T01:03:02.917Z,2.88
2023-02-19T01:05:29.999Z,2.63
2023-02-19T01:10:44.054Z,5.28
2023-02-19T01:13:11.124Z,2.58
2023-02-19T01:15:38.207Z,2.45
2023-02-19T01:18:05.278Z,2.58
2023-02-19T01:20:32.354Z,4.32
2023-02-19T01:22:59.406Z,4.47
2023-02-19T01:25:26.507Z,3.65
2023-02-19T01:27:53.568Z,2.20
2023-02-19T01:30:20.773Z,2.80
2023-02-19T01:32:47.906Z,3.58
2023-02-19T01:35:15.030Z,4.22
2023-02-19T01:37:42.105Z,2.83
2023-02-19T01:40:09.199Z,3.72
2023-02-19T01:42:36.288Z,3.25
2023-02-19T01:45:03.373Z,2.08
2023-02-19T01:47:30.449Z,3.13
2023-02-19T01:52:44.531Z,2.05
2023-02-19T01:55:11.620Z,2.78
2023-02-19T01:57:40.310Z,2.75
2023-02-19T02:00:07.466Z,2.17
2023-02-19T02:02:34.526Z,2.70
2023-02-19T02:05:01.616Z,4.43
2023-02-19T02:07:47.251Z,2.25
2023-02-19T02:10:20.422Z,3.13
2023-02-19T02:12:47.570Z,5.70
2023-02-19T02:15:14.639Z,2.15
2023-02-19T02:17:41.726Z,1.60
2023-02-19T02:20:08.823Z,2.80
2023-02-19T02:25:22.949Z,1.45
2023-02-19T02:27:50.007Z,3.33
2023-02-19T02:33:04.566Z,1.60
2023-02-19T02:35:31.710Z,1.77
2023-02-19T02:37:58.850Z,2.97
2023-02-19T02:40:25.950Z,1.95
2023-02-19T02:45:40.178Z,1.25
2023-02-19T02:48:07.274Z,1.63
2023-02-19T02:50:34.346Z,2.17
2023-02-19T02:53:20.113Z,2.25
2023-02-19T02:55:47.180Z,1.80
2023-02-19T02:58:14.309Z,1.63
2023-02-19T03:01:02.058Z,3.03
2023-02-19T03:03:29.489Z,1.40
2023-02-19T03:08:43.572Z,1.23
2023-02-19T03:11:29.454Z,2.38
2023-02-19T03:14:15.454Z,1.02
2023-02-19T03:19:29.162Z,2.45
2023-02-19T03:24:41.960Z,2.42
2023-02-19T03:27:09.027Z,2.30
2023-02-19T03:29:36.123Z,1.45
2023-02-19T03:32:03.249Z,1.15
2023-02-19T03:34:30.396Z,1.98
2023-02-19T03:39:44.590Z,1.58
2023-02-19T03:42:11.693Z,1.75
2023-02-19T03:44:38.790Z,2.22
2023-02-19T03:47:05.871Z,2.22
2023-02-19T03:49:32.929Z,2.40
2023-02-19T03:51:59.998Z,1.25
2023-02-19T03:54:27.074Z,1.77
2023-02-19T03:59:41.136Z,1.90
2023-02-19T04:02:08.217Z,1.30
2023-02-19T04:04:35.342Z,1.02
2023-02-19T04:07:02.419Z,2.55
2023-02-19T04:09:29.523Z,2.08
2023-02-19T04:14:43.614Z,1.05
2023-02-19T04:17:11.085Z,0.80
2023-02-19T04:19:38.242Z,2.22
2023-02-19T04:22:05.558Z,1.02
2023-02-19T04:24:32.638Z,1.17
2023-02-19T04:26:59.715Z,1.45
2023-02-19T04:29:26.789Z,1.95
2023-02-19T04:34:40.896Z,1.30
2023-02-19T04:37:08.033Z,1.13
2023-02-19T04:39:35.122Z,1.88
2023-02-19T04:44:49.238Z,1.08
2023-02-19T04:47:19.052Z,1.95
2023-02-19T04:49:46.132Z,1.27
2023-02-19T04:52:13.261Z,0.98
2023-02-19T04:54:41.184Z,1.35
2023-02-19T04:57:08.249Z,0.90
2023-02-19T04:59:35.351Z,2.22
2023-02-19T05:02:02.457Z,1.00
2023-02-19T05:04:29.623Z,1.10
2023-02-19T05:09:43.680Z,1.30
2023-02-19T05:12:10.776Z,0.80
2023-02-19T05:17:24.881Z,0.75
2023-02-19T05:19:51.949Z,1.20
2023-02-19T05:22:19.015Z,0.80
2023-02-19T05:24:46.085Z,1.27
2023-02-19T05:27:13.153Z,3.05
2023-02-19T05:29:40.218Z,1.40
2023-02-19T05:32:07.287Z,1.17
2023-02-19T05:34:34.356Z,1.40
2023-02-19T05:37:01.466Z,0.73
2023-02-19T05:39:28.562Z,0.90
2023-02-19T05:44:42.622Z,0.73
2023-02-19T05:47:09.742Z,1.25
2023-02-19T05:49:36.820Z,1.13
2023-02-19T05:52:03.878Z,0.93
2023-02-19T05:54:31.004Z,1.00
2023-02-19T05:59:45.074Z,1.00
2023-02-19T06:02:12.142Z,1.25
2023-02-19T06:04:39.213Z,1.00
2023-02-19T06:07:06.287Z,0.80
2023-02-19T06:09:33.345Z,0.82
2023-02-19T06:12:00.486Z,2.00
2023-02-19T06:14:27.580Z,1.00
2023-02-19T06:19:21.715Z,1.50
2023-02-19T06:21:48.777Z,0.85
2023-02-19T06:24:15.860Z,1.25
2023-02-19T06:26:42.917Z,0.70
2023-02-19T06:29:09.988Z,1.00
2023-02-19T06:34:24.058Z,0.77
2023-02-19T06:36:51.139Z,0.93
2023-02-19T06:39:19.856Z,0.75
2023-02-19T06:41:47.368Z,0.70
2023-02-19T06:44:14.490Z,1.45
2023-02-19T06:46:41.704Z,0.80
2023-02-19T06:49:08.822Z,0.57
2023-02-19T06:51:35.980Z,1.20
2023-02-19T06:54:03.047Z,1.00
2023-02-19T06:56:30.142Z,0.73
2023-02-19T07:01:24.313Z,0.60
2023-02-19T07:03:52.716Z,1.00
2023-02-19T07:06:19.861Z,0.77
2023-02-19T07:08:46.962Z,0.70
2023-02-19T07:11:14.086Z,0.75
2023-02-19T07:13:41.234Z,0.80
2023-02-19T07:16:08.403Z,1.98
2023-02-19T07:18:35.573Z,1.15
2023-02-19T07:21:02.668Z,0.88
2023-02-19T07:23:29.791Z,0.60
2023-02-19T07:28:43.922Z,0.68
2023-02-19T07:31:11.373Z,0.70
2023-02-19T07:33:38.774Z,0.77
2023-02-19T07:36:05.848Z,0.70
2023-02-19T07:38:32.909Z,1.13
2023-02-19T07:41:01.604Z,0.75
2023-02-19T07:43:28.680Z,1.60
2023-02-19T07:48:22.765Z,0.82
2023-02-19T07:50:49.840Z,0.70
2023-02-19T07:53:16.937Z,0.60
2023-02-19T07:55:44.020Z,0.70
2023-02-19T07:58:11.117Z,0.60
2023-02-19T08:00:38.215Z,0.75
2023-02-19T08:03:05.311Z,0.75
2023-02-19T08:05:32.435Z,1.17
2023-02-19T08:07:59.508Z,0.98
2023-02-19T08:10:45.048Z,0.52
2023-02-19T08:16:20.135Z,0.60
2023-02-19T08:18:51.463Z,0.60
2023-02-19T08:21:18.543Z,0.70
2023-02-19T08:23:46.503Z,0.75
2023-02-19T08:26:13.688Z,0.63
2023-02-19T08:28:40.804Z,0.57
2023-02-19T08:31:08.094Z,0.60
2023-02-19T08:33:35.282Z,0.80
2023-02-19T08:36:04.640Z,0.70
2023-02-19T08:38:31.857Z,0.57
2023-02-19T08:40:59.103Z,0.60
2023-02-19T08:43:26.206Z,0.90
2023-02-19T08:48:40.274Z,0.50
2023-02-19T08:51:08.446Z,0.73
2023-02-19T08:53:35.692Z,0.60
2023-02-19T08:56:02.763Z,0.60
2023-02-19T08:58:29.865Z,0.60
2023-02-19T09:03:23.919Z,0.60
2023-02-19T09:05:50.980Z,0.50
2023-02-19T09:08:18.040Z,0.75
2023-02-19T09:10:45.155Z,0.82
2023-02-19T09:13:12.218Z,0.77
2023-02-19T09:15:39.398Z,0.50
2023-02-19T09:18:06.521Z,1.15
2023-02-19T09:20:33.616Z,0.98
2023-02-19T09:23:00.752Z,1.05
2023-02-19T09:25:27.905Z,0.65
2023-02-19T09:30:22.154Z,0.88
2023-02-19T09:32:49.274Z,0.60
2023-02-19T09:35:16.373Z,1.98
2023-02-19T09:37:43.455Z,2.60
2023-02-19T09:40:11.342Z,1.38
2023-02-19T09:45:05.505Z,0.98
2023-02-19T09:47:32.675Z,0.85
2023-02-19T09:49:59.782Z,0.65
2023-02-19T09:52:26.853Z,1.05
2023-02-19T10:00:33.253Z,0.60
2023-02-19T10:03:00.328Z,0.60
2023-02-19T10:08:14.483Z,1.10
2023-02-19T10:10:41.707Z,2.60
2023-02-19T10:13:08.804Z,0.88
2023-02-19T10:18:22.965Z,1.08
2023-02-19T10:20:50.124Z,1.30
2023-02-19T10:23:22.811Z,2.45
2023-02-19T10:25:49.885Z,1.17
2023-02-19T10:28:17.064Z,1.23
2023-02-19T10:30:44.215Z,1.23
2023-02-19T10:33:11.346Z,2.42
2023-02-19T10:35:38.408Z,2.05
2023-02-19T10:38:06.765Z,2.15
2023-02-19T10:40:33.843Z,2.13
2023-02-19T10:43:00.940Z,1.23
2023-02-19T10:45:28.016Z,1.58
2023-02-19T10:50:47.052Z,1.38
2023-02-19T10:53:14.116Z,4.85
2023-02-19T10:55:41.264Z,3.00
2023-02-19T10:58:08.351Z,1.83
2023-02-19T11:00:35.444Z,0.60
2023-02-19T11:03:02.531Z,0.50
2023-02-19T11:05:29.618Z,2.63
2023-02-19T11:10:43.804Z,0.98
2023-02-19T11:13:10.869Z,1.38
2023-02-19T11:15:37.945Z,1.50
2023-02-19T11:18:05.126Z,2.63
2023-02-19T11:20:32.223Z,2.72
2023-02-19T11:22:59.300Z,3.10
2023-02-19T11:25:26.827Z,3.72
2023-02-19T11:30:41.207Z,1.38
2023-02-19T11:33:08.304Z,5.13
2023-02-19T11:35:35.368Z,6.20
2023-02-19T11:38:02.440Z,2.20
2023-02-19T11:40:29.518Z,3.38
2023-02-19T11:45:43.589Z,4.78
2023-02-19T11:48:10.742Z,8.65
2023-02-19T11:50:37.810Z,7.00
2023-02-19T11:53:04.908Z,7.75
2023-02-19T11:55:32.092Z,4.45
2023-02-19T11:57:59.158Z,3.22
2023-02-19T12:00:26.298Z,2.78
2023-02-19T12:05:22.914Z,3.38
2023-02-19T12:07:50.054Z,4.32
2023-02-19T12:10:17.142Z,5.95
2023-02-19T12:12:44.229Z,3.75
2023-02-19T12:15:11.354Z,6.90
2023-02-19T12:20:25.482Z,10.38
2023-02-19T12:25:21.240Z,12.07
2023-02-19T12:27:48.306Z,17.27
2023-02-19T12:30:17.144Z,19.08
2023-02-19T12:32:44.333Z,19.77
2023-02-19T12:35:11.423Z,19.40
2023-02-19T12:37:38.561Z,21.27
2023-02-19T12:40:05.692Z,24.85
2023-02-19T12:42:32.862Z,24.98
2023-02-19T12:45:00.093Z,30.73
2023-02-19T12:47:27.177Z,30.52
2023-02-19T12:52:41.303Z,34.42
2023-02-19T12:55:08.374Z,25.25
2023-02-19T12:57:35.521Z,28.50
2023-02-19T13:00:04.857Z,27.95
2023-02-19T13:02:31.979Z,29.95
2023-02-19T13:04:59.316Z,28.80
2023-02-19T13:07:26.422Z,31.23
2023-02-19T13:09:53.530Z,32.08
2023-02-19T13:12:20.613Z,28.98
2023-02-19T13:14:47.690Z,33.63
2023-02-19T13:17:16.503Z,32.40
2023-02-19T13:19:43.611Z,30.00
2023-02-19T13:22:29.183Z,32.90
2023-02-19T13:24:56.267Z,29.65
2023-02-19T13:27:23.736Z,28.98
2023-02-19T13:29:52.181Z,29.40
2023-02-19T13:35:07.377Z,33.40
2023-02-19T13:37:34.749Z,27.42
2023-02-19T13:40:01.876Z,30.55
2023-02-19T13:42:29.877Z,30.98
2023-02-19T13:44:58.343Z,25.08
2023-02-19T13:47:25.926Z,25.88
2023-02-19T13:49:53.088Z,31.02
2023-02-19T13:52:20.151Z,29.95
2023-02-19T13:54:47.239Z,29.38
2023-02-19T13:57:14.332Z,28.17
2023-02-19T13:59:41.676Z,22.67
2023-02-19T14:02:08.832Z,26.58
2023-02-19T14:04:35.941Z,29.92
2023-02-19T14:07:03.006Z,26.27
2023-02-19T14:09:30.146Z,25.30
2023-02-19T14:14:24.212Z,32.40
2023-02-19T14:16:51.355Z,29.13
2023-02-19T14:19:18.429Z,28.02
2023-02-19T14:21:46.536Z,23.67
2023-02-19T14:24:13.606Z,28.40
2023-02-19T14:26:40.670Z,26.08
2023-02-19T14:29:07.779Z,22.60
2023-02-19T14:31:35.507Z,29.27
2023-02-19T14:34:03.372Z,23.40
2023-02-19T14:36:30.467Z,26.20
2023-02-19T14:38:57.538Z,24.90
2023-02-19T14:41:24.626Z,21.60
2023-02-19T14:43:51.777Z,25.73
2023-02-19T14:46:18.863Z,24.50
2023-02-19T14:48:45.996Z,22.92
2023-02-19T14:51:13.335Z,20.30
2023-02-19T14:53:40.552Z,20.52
2023-02-19T14:56:07.691Z,20.85
2023-02-19T14:58:36.914Z,20.63
2023-02-19T15:01:05.503Z,24.40
2023-02-19T15:03:32.629Z,19.15
2023-02-19T15:08:46.765Z,20.65
2023-02-19T15:11:14.098Z,21.95
2023-02-19T15:13:45.717Z,19.92
2023-02-19T15:16:12.872Z,19.88
2023-02-19T15:18:39.931Z,19.08
2023-02-19T15:21:08.144Z,21.25
2023-02-19T15:23:35.942Z,21.05
2023-02-19T15:26:03.112Z,20.65
2023-02-19T15:28:30.237Z,17.90
2023-02-19T15:30:57.497Z,18.75
2023-02-19T15:33:24.641Z,19.58
2023-02-19T15:35:51.702Z,20.65
2023-02-19T15:38:18.762Z,20.55
2023-02-19T15:43:33.074Z,17.98
2023-02-19T15:48:27.117Z,18.13
2023-02-19T15:50:54.231Z,18.05
2023-02-19T15:53:21.329Z,18.63
2023-02-19T15:55:48.392Z,18.95
2023-02-19T15:58:15.503Z,20.60
2023-02-19T16:00:42.619Z,22.40
2023-02-19T16:03:09.726Z,21.33
2023-02-19T16:05:39.952Z,16.67
2023-02-19T16:08:07.030Z,17.13
2023-02-19T16:10:34.131Z,21.48
2023-02-19T16:15:48.365Z,16.55
2023-02-19T16:18:15.528Z,16.45
2023-02-19T16:20:42.620Z,13.27
2023-02-19T16:23:09.708Z,19.35
2023-02-19T16:25:36.844Z,17.50
2023-02-19T16:28:03.928Z,17.17
2023-02-19T16:30:31.105Z,14.93
2023-02-19T16:32:58.202Z,15.32
2023-02-19T16:35:25.256Z,18.77
2023-02-19T16:37:52.354Z,15.52
2023-02-19T16:40:19.457Z,14.23
2023-02-19T16:42:46.542Z,14.82
2023-02-19T16:45:13.652Z,16.77
2023-02-19T16:47:44.934Z,15.60
2023-02-19T16:50:12.049Z,16.50
2023-02-19T16:52:42.341Z,14.73
2023-02-19T16:55:09.693Z,13.45
2023-02-19T16:57:36.769Z,15.20
2023-02-19T17:00:04.167Z,13.73
2023-02-19T17:02:33.463Z,13.13
2023-02-19T17:05:00.699Z,14.45
2023-02-19T17:07:27.772Z,15.95
2023-02-19T17:09:54.922Z,14.25
2023-02-19T17:12:22.028Z,14.23
2023-02-19T17:14:49.197Z,12.98
2023-02-19T17:17:16.265Z,18.50
2023-02-19T17:19:43.349Z,13.23
2023-02-19T17:22:13.854Z,13.07
2023-02-19T17:24:40.913Z,15.48
2023-02-19T17:27:07.975Z,12.82
2023-02-19T17:29:37.138Z,12.95
2023-02-19T17:32:04.312Z,12.30
2023-02-19T17:34:31.409Z,12.27
2023-02-19T17:36:58.470Z,11.82
2023-02-19T17:39:25.806Z,13.43
2023-02-19T17:41:52.882Z,13.80
2023-02-19T17:44:19.974Z,15.32
2023-02-19T17:46:47.610Z,14.75
2023-02-19T17:49:14.833Z,13.05
2023-02-19T17:51:41.967Z,13.82
2023-02-19T17:54:09.449Z,13.65
2023-02-19T17:56:36.706Z,18.17
2023-02-19T17:59:03.820Z,15.60
2023-02-19T18:01:30.918Z,10.52
2023-02-19T18:03:58.182Z,11.52
2023-02-19T18:06:25.266Z,16.15
2023-02-19T18:08:52.366Z,12.80
2023-02-19T18:11:19.491Z,14.30
2023-02-19T18:13:48.102Z,13.13
2023-02-19T18:16:18.229Z,9.30
2023-02-19T18:18:45.324Z,12.35
2023-02-19T18:21:12.767Z,11.10
2023-02-19T18:23:40.031Z,12.25
2023-02-19T18:26:07.096Z,9.38
2023-02-19T18:28:34.195Z,11.90
2023-02-19T18:33:48.278Z,9.38
2023-02-19T18:36:15.481Z,11.93
2023-02-19T18:38:42.548Z,10.65
2023-02-19T18:41:12.808Z,11.57
2023-02-19T18:43:43.109Z,10.00
2023-02-19T18:46:10.311Z,15.40
2023-02-19T18:48:37.409Z,9.70
2023-02-19T18:51:04.497Z,12.88
2023-02-19T18:53:31.573Z,12.05
2023-02-19T18:58:28.496Z,8.63
2023-02-19T19:00:55.634Z,9.50
2023-02-19T19:03:22.801Z,11.52
2023-02-19T19:05:52.364Z,11.07
2023-02-19T19:08:19.465Z,8.68
2023-02-19T19:10:46.533Z,9.20
2023-02-19T19:13:14.940Z,7.80
2023-02-19T19:15:42.206Z,8.68
2023-02-19T19:18:10.145Z,9.15
2023-02-19T19:20:37.300Z,9.52
2023-02-19T19:23:06.035Z,8.27
2023-02-19T19:25:33.184Z,9.52
2023-02-19T19:33:34.374Z,8.20
2023-02-19T19:36:01.512Z,7.43
2023-02-19T19:38:28.671Z,7.93
2023-02-19T19:40:55.764Z,9.00
2023-02-19T19:43:22.862Z,12.02
2023-02-19T19:48:37.528Z,8.70
2023-02-19T19:51:04.617Z,7.00
2023-02-19T19:53:31.778Z,8.07
2023-02-19T19:58:25.956Z,6.00
2023-02-19T20:00:53.100Z,8.95
2023-02-19T20:03:22.388Z,8.73
2023-02-19T20:05:52.553Z,8.45
2023-02-19T20:08:19.632Z,6.93
2023-02-19T20:13:34.563Z,6.97
2023-02-19T20:16:01.745Z,7.20
2023-02-19T20:18:28.960Z,5.20
2023-02-19T20:20:56.069Z,8.43
2023-02-19T20:23:23.231Z,7.82
2023-02-19T20:25:50.326Z,6.60
2023-02-19T20:28:17.433Z,4.88
2023-02-19T20:30:44.556Z,6.35
2023-02-19T20:33:11.663Z,6.32
2023-02-19T20:35:38.725Z,6.53
2023-02-19T20:38:05.804Z,6.07
2023-02-19T20:40:33.761Z,8.45
2023-02-19T20:43:04.493Z,5.75
2023-02-19T20:45:31.563Z,10.32
2023-02-19T20:50:25.849Z,6.97
2023-02-19T20:52:53.600Z,5.72
2023-02-19T20:55:20.888Z,5.03
2023-02-19T20:57:49.388Z,7.47
2023-02-19T21:00:17.077Z,5.68
2023-02-19T21:02:44.998Z,6.65
2023-02-19T21:05:13.428Z,5.93
2023-02-19T21:07:40.493Z,4.78
2023-02-19T21:10:07.574Z,5.80
2023-02-19T21:12:34.676Z,6.32
2023-02-19T21:15:01.742Z,4.45
2023-02-19T21:17:28.888Z,4.95
2023-02-19T21:19:55.957Z,4.45
2023-02-19T21:22:23.053Z,4.05
2023-02-19T21:24:52.004Z,4.78
2023-02-19T21:27:19.227Z,6.07
2023-02-19T21:29:48.563Z,4.78
2023-02-19T21:32:15.834Z,4.80
2023-02-19T21:34:43.067Z,5.13
2023-02-19T21:37:10.236Z,4.45
2023-02-19T21:39:38.963Z,5.43
2023-02-19T21:42:06.133Z,6.38
2023-02-19T21:44:34.812Z,7.22
2023-02-19T21:47:01.900Z,4.45
2023-02-19T21:49:29.730Z,7.13
2023-02-19T21:51:56.805Z,5.13
2023-02-19T21:54:27.000Z,4.88
2023-02-19T21:56:54.170Z,3.70
2023-02-19T21:59:21.302Z,6.25
2023-02-19T22:01:48.390Z,6.78
2023-02-19T22:04:15.487Z,4.25
2023-02-19T22:06:42.657Z,4.78
2023-02-19T22:09:09.747Z,5.30
2023-02-19T22:11:36.836Z,5.47
2023-02-19T22:14:03.949Z,3.92
2023-02-19T22:16:31.197Z,3.55
2023-02-19T22:21:45.403Z,3.88
2023-02-19T22:24:12.491Z,4.43
2023-02-19T22:26:39.674Z,5.38
2023-02-19T22:29:08.297Z,5.15
2023-02-19T22:31:35.773Z,4.70
2023-02-19T22:34:02.990Z,5.15
2023-02-19T22:36:33.338Z,6.75
2023-02-19T22:41:47.387Z,3.80
2023-02-19T22:44:14.454Z,4.93
2023-02-19T22:46:41.518Z,3.80
2023-02-19T22:51:55.602Z,3.90
2023-02-19T22:54:26.704Z,2.70
2023-02-19T22:56:53.856Z,5.60
2023-02-19T22:59:21.234Z,3.00
2023-02-19T23:01:48.922Z,4.07
2023-02-19T23:04:16.050Z,5.18
2023-02-19T23:06:43.704Z,5.68
2023-02-19T23:09:11.181Z,5.50
2023-02-19T23:11:39.147Z,3.35
2023-02-19T23:14:06.394Z,3.80
2023-02-19T23:16:35.917Z,4.07
2023-02-19T23:19:03.060Z,3.33
2023-02-19T23:21:30.236Z,3.72
2023-02-19T23:23:57.315Z,4.80
2023-02-19T23:26:24.462Z,3.60
2023-02-19T23:28:51.628Z,4.15
2023-02-19T23:31:18.823Z,2.78
2023-02-19T23:33:46.027Z,2.15
2023-02-19T23:36:13.571Z,4.70
2023-02-19T23:38:40.859Z,3.35
2023-02-19T23:41:07.934Z,3.55
2023-02-19T23:43:35.020Z,3.92
2023-02-19T23:46:02.153Z,3.67
2023-02-19T23:48:29.290Z,4.10
2023-02-19T23:50:56.371Z,3.38
2023-02-19T23:53:23.433Z,2.85
2023-02-19T23:55:51.704Z,3.15
2023-02-19T23:58:18.779Z,2.95
